Time;durP1;ratioP1;P1;durP2;ratioP2;P2;SDS_P1;SDS_P2;PMS_P1;PMS_P2;Temp;Humidity;BMP_temperature;BMP_pressure;BME280_temperature;BME280_humidity;BME280_pressure;Samples;Min_cycle;Max_cycle;Signal;HPM_P1;HPM_P2
2024/01/16 00:02:09;;;;;;;18.00;11.60;;;;;;;1.76;63.22;98371.45;105934;1253;59605;-70
2024/01/16 00:04:37;;;;;;;16.70;11.20;;;;;;;1.77;63.23;98379.73;105761;1256;64427;-69
2024/01/16 00:07:04;;;;;;;17.40;11.50;;;;;;;1.78;63.26;98380.32;105842;1253;59672;-70
2024/01/16 00:09:34;;;;;;;15.90;11.20;;;;;;;1.79;63.27;98383.75;105775;1253;64001;-70
2024/01/16 00:12:05;;;;;;;18.20;11.40;;;;;;;1.78;63.25;98382.76;105664;1253;59796;-68
2024/01/16 00:14:36;;;;;;;16.30;11.00;;;;;;;1.77;63.25;98385.27;105869;1253;59647;-70
2024/01/16 00:17:03;;;;;;;16.40;11.00;;;;;;;1.76;63.32;98384.84;105652;1253;64370;-70
2024/01/16 00:19:30;;;;;;;16.60;11.60;;;;;;;1.75;63.42;98376.20;105822;1256;59682;-70
2024/01/16 00:22:00;;;;;;;16.40;11.10;;;;;;;1.75;63.45;98372.56;105749;1252;64072;-69
2024/01/16 00:24:26;;;;;;;17.70;11.80;;;;;;;1.77;63.44;98372.99;105743;1253;59644;-71
2024/01/16 00:26:53;;;;;;;15.30;10.50;;;;;;;1.77;63.45;98381.11;105643;1253;59731;-72
2024/01/16 00:29:20;;;;;;;17.40;11.00;;;;;;;1.77;63.51;98388.04;105871;1256;64426;-71
2024/01/16 00:31:47;;;;;;;16.00;11.20;;;;;;;1.77;63.58;98386.85;105770;1256;59705;-70
2024/01/16 00:34:14;;;;;;;14.40;10.50;;;;;;;1.76;63.66;98378.42;105713;1253;64019;-70
2024/01/16 00:36:41;;;;;;;17.70;11.20;;;;;;;1.75;63.67;98375.57;105964;1253;59707;-70
2024/01/16 00:39:09;;;;;;;17.40;10.60;;;;;;;1.73;63.75;98374.77;105917;1253;59765;-71
2024/01/16 00:41:35;;;;;;;17.20;10.60;;;;;;;1.72;63.85;98378.98;105961;1256;64273;-70
2024/01/16 00:44:03;;;;;;;14.50;10.60;;;;;;;1.72;63.96;98375.90;105725;1253;60285;-70
2024/01/16 00:46:30;;;;;;;14.50;10.10;;;;;;;1.72;64.07;98376.42;105800;1252;63981;-70
2024/01/16 00:48:57;;;;;;;15.50;10.90;;;;;;;1.70;64.22;98383.16;105690;1256;59657;-70
2024/01/16 00:51:24;;;;;;;15.70;10.90;;;;;;;1.67;64.36;98379.73;105741;1253;59760;-69
2024/01/16 00:53:51;;;;;;;16.00;11.40;;;;;;;1.65;64.49;98375.77;105733;1254;64385;-69
2024/01/16 00:56:18;;;;;;;17.20;11.10;;;;;;;1.62;64.70;98374.55;105835;1256;59656;-68
2024/01/16 00:58:45;;;;;;;16.30;11.20;;;;;;;1.59;64.92;98373.76;105895;1253;63934;-70
2024/01/16 01:01:12;;;;;;;16.30;11.70;;;;;;;1.56;65.11;98372.42;105626;1252;60439;-69
2024/01/16 01:03:38;;;;;;;17.10;11.20;;;;;;;1.53;65.25;98374.02;105560;1253;60428;-70
2024/01/16 01:06:06;;;;;;;16.50;11.40;;;;;;;1.51;65.48;98374.57;105552;1254;65022;-70
2024/01/16 01:08:33;;;;;;;16.00;12.20;;;;;;;1.47;65.71;98374.66;105890;1256;60325;-70
2024/01/16 01:11:00;;;;;;;17.50;12.30;;;;;;;1.44;66.00;98374.36;105732;1253;63855;-70
2024/01/16 01:13:26;;;;;;;17.80;11.80;;;;;;;1.40;66.23;98375.16;105658;1253;60448;-69
2024/01/16 01:15:53;;;;;;;17.60;12.70;;;;;;;1.37;66.47;98380.45;105707;1253;60438;-69
2024/01/16 01:18:20;;;;;;;19.50;12.90;;;;;;;1.33;66.69;98379.16;105680;1256;65159;-69
2024/01/16 01:20:48;;;;;;;17.50;12.00;;;;;;;1.30;67.02;98377.18;105503;1258;60550;-70
2024/01/16 01:23:15;;;;;;;17.60;12.50;;;;;;;1.28;67.24;98381.65;105634;1257;64086;-69
2024/01/16 01:25:42;;;;;;;19.40;12.50;;;;;;;1.25;67.40;98382.38;105557;1256;60355;-70
2024/01/16 01:28:11;;;;;;;18.40;12.10;;;;;;;1.22;67.78;98377.90;105583;1253;60547;-70
2024/01/16 01:30:37;;;;;;;17.60;11.50;;;;;;;1.19;67.93;98372.79;105729;1253;65075;-70
2024/01/16 01:33:05;;;;;;;16.90;12.40;;;;;;;1.15;68.17;98363.48;105950;1253;60464;-69
2024/01/16 01:35:32;;;;;;;15.40;11.20;;;;;;;1.14;68.38;98361.98;105716;1253;64046;-69
2024/01/16 01:37:59;;;;;;;16.90;12.30;;;;;;;1.13;68.52;98363.83;105711;1253;60492;-71
2024/01/16 01:40:26;;;;;;;16.90;12.10;;;;;;;1.10;68.71;98360.22;105816;1253;60476;-69
2024/01/16 01:42:53;;;;;;;16.90;12.10;;;;;;;1.09;68.87;98358.35;105715;1257;65099;-69
2024/01/16 01:45:20;;;;;;;18.30;12.80;;;;;;;1.09;68.99;98354.77;105653;1253;60494;-70
2024/01/16 01:47:46;;;;;;;15.70;12.00;;;;;;;1.08;69.08;98348.38;105684;1253;64028;-70
2024/01/16 01:50:13;;;;;;;16.30;11.30;;;;;;;1.09;69.23;98344.55;105754;1253;60582;-69
2024/01/16 01:52:41;;;;;;;16.60;12.20;;;;;;;1.08;69.36;98341.33;105718;1253;60420;-71
2024/01/16 01:55:10;;;;;;;14.80;11.40;;;;;;;1.08;69.48;98334.55;105803;1253;64895;-69
2024/01/16 01:57:37;;;;;;;17.30;12.00;;;;;;;1.08;69.56;98333.84;105514;1253;60543;-69
2024/01/16 02:00:04;;;;;;;14.80;11.40;;;;;;;1.07;69.67;98337.77;105695;1257;63963;-69
2024/01/16 02:02:41;;;;;;;16.90;12.50;;;;;;;1.06;69.79;98345.96;105665;1253;60367;-70
2024/01/16 02:05:08;;;;;;;17.50;12.10;;;;;;;1.05;69.88;98345.48;105788;1251;60643;-70
2024/01/16 02:07:35;;;;;;;18.10;12.20;;;;;;;1.04;70.02;98346.28;105709;1258;65251;-70
2024/01/16 02:10:03;;;;;;;18.80;13.40;;;;;;;1.04;70.14;98349.69;105883;1253;60518;-68
2024/01/16 02:12:30;;;;;;;18.30;13.50;;;;;;;1.06;70.18;98343.49;105764;1253;64013;-69
2024/01/16 02:14:57;;;;;;;16.20;12.40;;;;;;;1.07;70.24;98341.21;105635;1253;60470;-69
2024/01/16 02:17:24;;;;;;;16.10;12.80;;;;;;;1.08;70.30;98344.29;105760;1253;60547;-70
2024/01/16 02:19:51;;;;;;;16.90;12.50;;;;;;;1.08;70.51;98348.21;105785;1256;64897;-69
2024/01/16 02:22:21;;;;;;;16.10;12.80;;;;;;;1.07;70.46;98349.34;105768;1256;60430;-70
2024/01/16 02:24:49;;;;;;;17.60;13.40;;;;;;;1.07;70.54;98351.63;105872;1251;63910;-69
2024/01/16 02:27:16;;;;;;;18.60;13.90;;;;;;;1.06;70.54;98362.94;105798;1256;60364;-69
2024/01/16 02:29:43;;;;;;;17.70;13.10;;;;;;;1.04;70.65;98368.61;105546;1253;61090;-68
2024/01/16 02:32:11;;;;;;;32.20;22.70;;;;;;;1.03;70.84;98367.15;105568;1256;65167;-69
2024/01/16 02:34:38;;;;;;;30.60;20.30;;;;;;;1.01;71.00;98362.98;105667;1253;60744;-69
2024/01/16 02:37:05;;;;;;;24.10;17.50;;;;;;;1.01;71.07;98364.70;105603;1254;64119;-69
2024/01/16 02:39:32;;;;;;;20.50;14.30;;;;;;;1.03;71.11;98364.36;105670;1253;60538;-70
2024/01/16 02:41:59;;;;;;;17.20;12.80;;;;;;;1.05;71.12;98364.89;105788;1253;60435;-69
2024/01/16 02:44:26;;;;;;;14.80;11.50;;;;;;;1.08;71.19;98366.44;105665;1256;65119;-69
2024/01/16 02:46:53;;;;;;;13.80;11.40;;;;;;;1.10;71.25;98363.17;105582;1255;60498;-71
2024/01/16 02:49:20;;;;;;;12.60;10.10;;;;;;;1.12;71.32;98367.55;105554;1253;63852;-70
2024/01/16 02:51:47;;;;;;;13.80;10.90;;;;;;;1.12;71.41;98366.63;105657;1253;60361;-70
2024/01/16 02:54:14;;;;;;;13.00;10.50;;;;;;;1.12;71.40;98367.13;105738;1253;60418;-69
2024/01/16 02:56:41;;;;;;;14.50;10.90;;;;;;;1.13;71.44;98367.95;105867;1253;65087;-69
2024/01/16 02:59:09;;;;;;;13.60;11.10;;;;;;;1.13;71.49;98354.97;105607;1253;60489;-69
2024/01/16 03:01:36;;;;;;;13.00;9.90;;;;;;;1.13;71.56;98336.56;105882;1254;62844;-70
2024/01/16 03:04:03;;;;;;;12.50;9.90;;;;;;;1.15;71.53;98328.30;105675;1253;60413;-70
2024/01/16 03:06:30;;;;;;;14.40;11.60;;;;;;;1.16;71.51;98318.20;105766;1253;60460;-69
2024/01/16 03:08:58;;;;;;;14.00;10.90;;;;;;;1.17;71.56;98312.90;105709;1254;65177;-70
2024/01/16 03:11:25;;;;;;;13.30;10.80;;;;;;;1.20;71.62;98305.58;105717;1253;60521;-70
2024/01/16 03:13:55;;;;;;;13.40;10.90;;;;;;;1.21;71.58;98309.34;105741;1253;64029;-70
2024/01/16 03:16:21;;;;;;;14.20;11.20;;;;;;;1.21;71.54;98313.34;105675;1253;60352;-69
2024/01/16 03:18:48;;;;;;;14.20;11.70;;;;;;;1.20;71.48;98320.88;105711;1253;60632;-70
2024/01/16 03:21:15;;;;;;;13.00;10.70;;;;;;;1.18;71.49;98322.94;105616;1257;65076;-69
2024/01/16 03:23:42;;;;;;;14.40;11.90;;;;;;;1.17;71.55;98326.27;106149;1252;60350;-70
2024/01/16 03:26:15;;;;;;;12.60;10.80;;;;;;;1.17;71.58;98324.35;105827;1253;63886;-69
2024/01/16 03:28:42;;;;;;;15.50;11.00;;;;;;;1.17;71.62;98319.37;105715;1252;61907;-69
2024/01/16 03:31:09;;;;;;;14.30;11.30;;;;;;;1.14;71.57;98323.66;105870;1253;61074;-70
2024/01/16 03:33:41;;;;;;;13.90;11.00;;;;;;;1.13;71.62;98329.13;105765;1253;65216;-70
2024/01/16 03:36:09;;;;;;;12.70;9.80;;;;;;;1.14;71.77;98330.77;105880;1256;60525;-70
2024/01/16 03:38:39;;;;;;;15.30;11.90;;;;;;;1.15;71.74;98322.90;105694;1253;62493;-69
2024/01/16 03:41:07;;;;;;;13.00;10.90;;;;;;;1.15;71.73;98314.95;105636;1257;60353;-69
2024/01/16 03:43:34;;;;;;;16.00;11.80;;;;;;;1.16;71.80;98312.46;105678;1253;61014;-69
2024/01/16 03:46:01;;;;;;;14.60;11.20;;;;;;;1.16;71.75;98310.90;105688;1257;65105;-68
2024/01/16 03:48:28;;;;;;;14.30;11.30;;;;;;;1.17;71.76;98312.04;105639;1253;60503;-68
2024/01/16 03:50:56;;;;;;;14.40;10.80;;;;;;;1.18;71.81;98308.48;105610;1253;64085;-68
2024/01/16 03:53:23;;;;;;;16.00;10.40;;;;;;;1.20;71.80;98303.20;105721;1256;61093;-70
2024/01/16 03:55:50;;;;;;;14.00;11.00;;;;;;;1.20;71.82;98302.46;105552;1253;60432;-70
2024/01/16 03:58:17;;;;;;;15.50;11.70;;;;;;;1.20;71.84;98296.05;105697;1256;65197;-69
2024/01/16 04:00:44;;;;;;;12.70;10.80;;;;;;;1.21;71.85;98283.51;105752;1256;60459;-70
2024/01/16 04:03:13;;;;;;;14.80;11.40;;;;;;;1.22;71.88;98280.27;105695;1253;64028;-70
2024/01/16 04:05:40;;;;;;;13.60;9.80;;;;;;;1.23;71.82;98293.23;105431;1253;60387;-70
2024/01/16 04:08:07;;;;;;;15.10;11.70;;;;;;;1.21;71.64;98307.05;105696;1251;60450;-69
2024/01/16 04:10:34;;;;;;;15.40;11.70;;;;;;;1.20;71.67;98318.97;105675;1255;65155;-70
2024/01/16 04:13:01;;;;;;;14.80;11.30;;;;;;;1.16;71.64;98319.19;105676;1253;60560;-69
2024/01/16 04:15:28;;;;;;;15.30;11.70;;;;;;;1.14;71.65;98318.63;105603;1252;64105;-69
2024/01/16 04:17:55;;;;;;;13.00;10.00;;;;;;;1.14;71.68;98324.23;105648;1253;60349;-69
2024/01/16 04:20:22;;;;;;;14.40;11.10;;;;;;;1.13;71.64;98330.02;105585;1253;60443;-69
2024/01/16 04:22:49;;;;;;;14.30;11.20;;;;;;;1.10;71.61;98331.94;105575;1256;65262;-70
2024/01/16 04:25:16;;;;;;;14.40;10.70;;;;;;;1.09;71.64;98328.42;105689;1258;60470;-69
2024/01/16 04:27:43;;;;;;;13.50;11.30;;;;;;;1.08;71.69;98337.31;105420;1259;63709;-69
2024/01/16 04:30:10;;;;;;;14.20;11.10;;;;;;;1.07;71.70;98342.91;105657;1253;60451;-74
2024/01/16 04:32:38;;;;;;;14.40;11.20;;;;;;;1.05;71.68;98336.63;105762;1253;60476;-71
2024/01/16 04:35:05;;;;;;;13.50;10.70;;;;;;;1.04;71.64;98329.63;105721;1256;65269;-70
2024/01/16 04:37:32;;;;;;;13.20;10.40;;;;;;;1.04;71.69;98332.60;105625;1256;60524;-70
2024/01/16 04:39:59;;;;;;;13.90;10.80;;;;;;;1.04;71.69;98345.88;105893;1253;64119;-71
2024/01/16 04:42:26;;;;;;;12.20;10.30;;;;;;;1.05;71.69;98355.70;105733;1256;60371;-68
2024/01/16 04:44:54;;;;;;;14.40;11.10;;;;;;;1.06;71.69;98353.73;105620;1253;60463;-69
2024/01/16 04:47:21;;;;;;;12.80;10.50;;;;;;;1.06;71.68;98355.16;105704;1257;65235;-69
2024/01/16 04:49:48;;;;;;;13.80;11.20;;;;;;;1.06;71.69;98356.88;105739;1253;60553;-70
2024/01/16 04:52:15;;;;;;;16.10;12.40;;;;;;;1.08;71.68;98359.89;105764;1253;64200;-69
2024/01/16 04:54:45;;;;;;;23.30;14.20;;;;;;;1.07;71.72;98358.68;105563;1257;60375;-71
2024/01/16 04:57:12;;;;;;;34.00;19.00;;;;;;;1.07;71.69;98358.00;105559;1253;60440;-69
2024/01/16 04:59:38;;;;;;;45.30;21.60;;;;;;;1.06;71.69;98358.23;105862;1254;65250;-71
2024/01/16 05:02:05;;;;;;;33.10;18.10;;;;;;;1.07;71.74;98354.90;105705;1254;60485;-69
2024/01/16 05:04:32;;;;;;;25.00;16.30;;;;;;;1.08;71.74;98349.82;105885;1254;64344;-69
2024/01/16 05:06:59;;;;;;;18.40;14.10;;;;;;;1.08;71.71;98343.53;105625;1258;60358;-69
2024/01/16 05:09:26;;;;;;;20.00;14.90;;;;;;;1.08;71.74;98339.77;105844;1251;60428;-70
2024/01/16 05:11:53;;;;;;;26.70;16.50;;;;;;;1.06;71.72;98348.21;105958;1254;65237;-70
2024/01/16 05:14:24;;;;;;;35.80;22.60;;;;;;;1.04;71.71;98359.45;105875;1253;60467;-69
2024/01/16 05:16:52;;;;;;;29.30;18.30;;;;;;;1.03;71.75;98373.04;105700;1254;64142;-70
2024/01/16 05:19:19;;;;;;;25.40;17.70;;;;;;;1.03;71.74;98378.38;105757;1253;60374;-69
2024/01/16 05:21:46;;;;;;;20.50;14.70;;;;;;;1.05;71.83;98382.59;105642;1253;60439;-71
2024/01/16 05:24:13;;;;;;;17.60;12.90;;;;;;;1.05;71.82;98393.53;105597;1253;65325;-69
2024/01/16 05:26:40;;;;;;;14.10;11.20;;;;;;;1.05;71.85;98394.05;105652;1253;60535;-69
2024/01/16 05:29:07;;;;;;;17.40;11.80;;;;;;;1.05;71.92;98389.67;105383;1253;63993;-69
2024/01/16 05:31:39;;;;;;;26.40;15.70;;;;;;;1.07;71.94;98386.64;105747;1253;60352;-70
2024/01/16 05:34:06;;;;;;;25.20;15.50;;;;;;;1.07;71.94;98389.71;105788;1253;60518;-70
2024/01/16 05:36:33;;;;;;;30.50;18.20;;;;;;;1.08;71.92;98394.52;105678;1257;65171;-70
2024/01/16 05:39:00;;;;;;;22.00;15.50;;;;;;;1.09;71.96;98394.27;105591;1253;60435;-69
2024/01/16 05:41:27;;;;;;;22.80;15.10;;;;;;;1.09;71.99;98392.57;105651;1256;63748;-69
2024/01/16 05:43:54;;;;;;;18.60;13.40;;;;;;;1.09;72.07;98388.86;105723;1253;60344;-69
2024/01/16 05:46:21;;;;;;;17.90;12.50;;;;;;;1.10;72.06;98388.84;105613;1252;60445;-71
2024/01/16 05:48:48;;;;;;;14.80;11.20;;;;;;;1.10;71.95;98389.86;105966;1256;65154;-69
2024/01/16 05:51:15;;;;;;;14.70;11.60;;;;;;;1.09;72.04;98391.84;105809;1253;60449;-69
2024/01/16 05:53:43;;;;;;;16.00;12.10;;;;;;;1.07;71.98;98395.77;105872;1252;64133;-68
2024/01/16 05:56:10;;;;;;;16.00;11.60;;;;;;;1.05;72.08;98391.95;105708;1253;60425;-70
2024/01/16 05:58:39;;;;;;;16.40;11.50;;;;;;;1.04;72.03;98391.83;105819;1253;60488;-69
2024/01/16 06:01:06;;;;;;;15.40;11.50;;;;;;;1.05;72.11;98389.52;105859;1255;65106;-67
2024/01/16 06:03:33;;;;;;;15.20;11.60;;;;;;;1.05;72.06;98389.00;105817;1256;60445;-68
2024/01/16 06:06:00;;;;;;;15.50;12.00;;;;;;;1.04;72.07;98390.08;105814;1253;64020;-69
2024/01/16 06:08:28;;;;;;;16.80;12.50;;;;;;;1.05;72.12;98394.52;105714;1253;60361;-70
2024/01/16 06:10:55;;;;;;;17.20;12.80;;;;;;;1.06;72.10;98388.25;105783;1253;60518;-72
2024/01/16 06:13:22;;;;;;;17.60;12.90;;;;;;;1.06;72.04;98388.23;105803;1253;65258;-69
2024/01/16 06:15:48;;;;;;;19.70;14.60;;;;;;;1.04;72.05;98386.13;105686;1257;61198;-69
2024/01/16 06:18:15;;;;;;;21.60;16.20;;;;;;;1.02;71.91;98382.65;105785;1258;64021;-69
2024/01/16 06:20:42;;;;;;;22.60;17.20;;;;;;;1.00;71.85;98387.00;105749;1253;60372;-69
2024/01/16 06:23:10;;;;;;;23.90;17.50;;;;;;;0.96;71.76;98391.04;105872;1253;60501;-69
2024/01/16 06:25:37;;;;;;;20.00;15.70;;;;;;;0.92;71.74;98394.84;105837;1253;65337;-69
2024/01/16 06:28:05;;;;;;;20.20;14.30;;;;;;;0.88;71.68;98402.58;105784;1253;60422;-70
2024/01/16 06:30:32;;;;;;;16.40;13.30;;;;;;;0.86;71.65;98407.67;105549;1253;64075;-70
2024/01/16 06:32:59;;;;;;;16.10;12.40;;;;;;;0.85;71.56;98410.16;105700;1253;60441;-70
2024/01/16 06:35:26;;;;;;;16.60;12.40;;;;;;;0.83;71.64;98409.77;105635;1253;60793;-72
2024/01/16 06:37:53;;;;;;;14.70;11.50;;;;;;;0.84;71.53;98405.28;105789;1253;65170;-69
2024/01/16 06:40:20;;;;;;;15.40;12.00;;;;;;;0.83;71.44;98402.35;105611;1253;60443;-70
2024/01/16 06:42:48;;;;;;;16.00;11.80;;;;;;;0.82;71.41;98398.48;105860;1253;64014;-69
2024/01/16 06:45:15;;;;;;;16.70;12.60;;;;;;;0.81;71.31;98393.13;105752;1254;60467;-69
2024/01/16 06:47:42;;;;;;;18.60;13.10;;;;;;;0.82;71.34;98394.29;105856;1253;60476;-68
2024/01/16 06:50:10;;;;;;;15.40;11.90;;;;;;;0.84;71.39;98395.69;105842;1256;65230;-69
2024/01/16 06:52:37;;;;;;;17.20;13.50;;;;;;;0.89;71.23;98402.79;105797;1253;60422;-69
2024/01/16 06:55:04;;;;;;;17.20;13.70;;;;;;;0.93;71.24;98403.44;105650;1253;64004;-69
2024/01/16 06:57:31;;;;;;;18.40;13.70;;;;;;;0.95;71.19;98404.65;105653;1253;60435;-69
2024/01/16 06:59:58;;;;;;;17.50;14.20;;;;;;;0.95;71.25;98403.21;105522;1253;60516;-69
2024/01/16 07:02:26;;;;;;;16.30;12.90;;;;;;;0.97;71.25;98399.79;105637;1253;65106;-68
2024/01/16 07:04:53;;;;;;;18.90;14.30;;;;;;;1.01;71.20;98410.46;105720;1256;60510;-69
2024/01/16 07:07:20;;;;;;;19.70;14.30;;;;;;;1.03;71.16;98412.77;105635;1259;64001;-69
2024/01/16 07:09:47;;;;;;;20.90;15.10;;;;;;;1.03;71.12;98410.61;105609;1253;60454;-69
2024/01/16 07:12:13;;;;;;;22.90;15.90;;;;;;;1.05;71.12;98415.36;105541;1253;60516;-70
2024/01/16 07:14:40;;;;;;;21.70;15.70;;;;;;;1.06;71.07;98420.47;105727;1256;65212;-69
2024/01/16 07:17:07;;;;;;;22.90;16.30;;;;;;;1.07;71.06;98420.94;105726;1255;60411;-72
2024/01/16 07:19:34;;;;;;;21.10;14.70;;;;;;;1.09;71.09;98420.27;105692;1253;63861;-71
2024/01/16 07:22:02;;;;;;;20.00;15.10;;;;;;;1.11;70.96;98419.73;105732;1253;60402;-70
2024/01/16 07:24:29;;;;;;;29.90;17.30;;;;;;;1.13;70.87;98424.33;105774;1252;60447;-68
2024/01/16 07:26:56;;;;;;;36.30;21.00;;;;;;;1.11;70.76;98427.88;105678;1253;65104;-70
2024/01/16 07:29:23;;;;;;;31.20;18.30;;;;;;;1.10;70.62;98425.70;105703;1253;60457;-69
2024/01/16 07:31:50;;;;;;;25.70;16.00;;;;;;;1.10;70.52;98427.48;105499;1253;65656;-69
2024/01/16 07:34:21;;;;;;;23.50;17.10;;;;;;;1.11;70.45;98429.66;105712;1253;60435;-68
2024/01/16 07:36:49;;;;;;;21.40;15.90;;;;;;;1.11;70.36;98426.50;105811;1253;60447;-68
2024/01/16 07:39:15;;;;;;;23.10;16.40;;;;;;;1.14;70.26;98430.80;105720;1258;65114;-69
2024/01/16 07:41:42;;;;;;;24.20;16.90;;;;;;;1.13;70.09;98429.81;105609;1253;60485;-69
2024/01/16 07:44:09;;;;;;;24.50;16.40;;;;;;;1.16;70.03;98433.63;105719;1253;63930;-68
2024/01/16 07:46:36;;;;;;;23.90;17.50;;;;;;;1.21;69.86;98436.61;105680;1254;60371;-70
2024/01/16 07:49:03;;;;;;;27.50;18.30;;;;;;;1.22;69.59;98440.31;105801;1253;60428;-69
2024/01/16 07:51:30;;;;;;;21.90;16.10;;;;;;;1.23;69.37;98440.05;105658;1257;65209;-68
2024/01/16 07:54:07;;;;;;;20.00;15.10;;;;;;;1.24;69.01;98444.83;105827;1253;60647;-69
2024/01/16 07:56:35;;;;;;;19.30;14.70;;;;;;;1.25;68.74;98445.95;105652;1254;64091;-68
2024/01/16 07:59:02;;;;;;;23.80;15.80;;;;;;;1.28;68.59;98442.83;105830;1253;60421;-68
2024/01/16 08:01:29;;;;;;;23.40;16.60;;;;;;;1.32;68.32;98439.55;105832;1253;60310;-69
2024/01/16 08:03:56;;;;;;;24.80;18.00;;;;;;;1.38;68.22;98442.83;105867;1256;64976;-69
2024/01/16 08:06:23;;;;;;;24.70;17.30;;;;;;;1.42;67.98;98449.41;105888;1253;60417;-69
2024/01/16 08:08:50;;;;;;;23.10;16.50;;;;;;;1.44;67.58;98456.03;105839;1253;64005;-69
2024/01/16 08:11:18;;;;;;;20.40;14.70;;;;;;;1.47;67.34;98447.84;105825;1253;60355;-69
2024/01/16 08:13:45;;;;;;;23.00;15.90;;;;;;;1.50;67.00;98446.77;105535;1254;60425;-68
2024/01/16 08:16:12;;;;;;;20.50;14.60;;;;;;;1.52;66.77;98449.88;105942;1258;65252;-69
2024/01/16 08:18:39;;;;;;;21.50;14.70;;;;;;;1.56;66.51;98453.64;105735;1253;60552;-68
2024/01/16 08:21:07;;;;;;;20.70;14.30;;;;;;;1.58;66.35;98463.16;105686;1253;64068;-68
2024/01/16 08:23:34;;;;;;;25.30;17.10;;;;;;;1.62;66.17;98461.13;105528;1253;60442;-68
2024/01/16 08:26:01;;;;;;;20.50;14.50;;;;;;;1.66;66.02;98457.35;105584;1253;60479;-68
2024/01/16 08:28:28;;;;;;;19.90;14.20;;;;;;;1.68;65.55;98458.94;105440;1254;65266;-68
2024/01/16 08:30:55;;;;;;;19.60;14.50;;;;;;;1.68;65.25;98461.18;105687;1253;60543;-69
2024/01/16 08:33:23;;;;;;;17.90;13.40;;;;;;;1.68;65.13;98456.89;105818;1253;63892;-69
2024/01/16 08:36:04;;;;;;;19.80;14.10;;;;;;;1.70;65.02;98458.82;105808;1259;60511;-68
2024/01/16 08:38:31;;;;;;;18.30;14.50;;;;;;;1.73;64.94;98465.15;105728;1254;60479;-68
2024/01/16 08:40:58;;;;;;;20.70;13.70;;;;;;;1.78;64.80;98467.96;105892;1254;66986;-68
2024/01/16 08:43:25;;;;;;;19.10;14.50;;;;;;;1.79;64.55;98465.59;105848;1253;60450;-69
2024/01/16 08:45:52;;;;;;;23.50;15.50;;;;;;;1.79;64.43;98470.80;105865;1256;65963;-70
2024/01/16 08:48:19;;;;;;;23.40;14.60;;;;;;;1.77;64.06;98470.81;105757;1254;60372;-68
2024/01/16 08:50:47;;;;;;;18.90;13.40;;;;;;;1.73;63.95;98474.37;105708;1253;60638;-67
2024/01/16 08:53:14;;;;;;;20.40;14.50;;;;;;;1.72;63.74;98474.46;105777;1254;67030;-67
2024/01/16 08:55:41;;;;;;;21.70;14.40;;;;;;;1.75;63.65;98469.38;105783;1253;60540;-68
2024/01/16 08:58:08;;;;;;;20.90;14.40;;;;;;;1.83;63.58;98464.65;105737;1254;64047;-69
2024/01/16 09:00:35;;;;;;;18.30;14.00;;;;;;;1.89;63.46;98471.10;105690;1253;60345;-67
2024/01/16 09:03:05;;;;;;;19.70;14.30;;;;;;;1.94;63.35;98475.80;105794;1253;60543;-68
2024/01/16 09:05:34;;;;;;;19.30;13.80;;;;;;;1.99;63.15;98476.81;105560;1253;282534;-69
2024/01/16 09:08:05;;;;;;;17.10;13.00;;;;;;;2.06;63.06;98483.42;105496;1253;60488;-68
2024/01/16 09:10:32;;;;;;;16.80;12.10;;;;;;;2.17;63.17;98483.07;105657;1254;65718;-70
2024/01/16 09:12:59;;;;;;;16.10;12.30;;;;;;;2.29;62.73;98493.98;105481;1258;60444;-68
2024/01/16 09:15:26;;;;;;;17.10;12.60;;;;;;;2.35;62.39;98496.34;105736;1253;60630;-70
2024/01/16 09:17:53;;;;;;;15.90;12.70;;;;;;;2.37;62.20;98496.14;105572;1260;67017;-67
2024/01/16 09:20:20;;;;;;;16.60;12.30;;;;;;;2.39;61.94;98494.78;105553;1253;60538;-66
2024/01/16 09:22:47;;;;;;;15.80;12.20;;;;;;;2.42;61.60;98495.81;105728;1253;66111;-67
2024/01/16 09:25:14;;;;;;;17.70;12.30;;;;;;;2.44;61.35;98493.02;105824;1253;62499;-69
2024/01/16 09:27:41;;;;;;;18.60;12.60;;;;;;;2.45;61.08;98491.52;105925;1253;60432;-69
2024/01/16 09:30:09;;;;;;;15.80;11.90;;;;;;;2.52;61.15;98492.61;105792;1256;75223;-68
2024/01/16 09:32:37;;;;;;;16.50;11.90;;;;;;;2.62;61.26;98489.93;105906;1256;60518;-69
2024/01/16 09:35:07;;;;;;;17.70;12.40;;;;;;;2.73;60.76;98492.16;105650;1256;64053;-68
2024/01/16 09:37:35;;;;;;;16.80;12.00;;;;;;;2.78;60.27;98495.23;105820;1253;60458;-69
2024/01/16 09:40:05;;;;;;;15.60;11.10;;;;;;;2.81;59.84;98497.81;105711;1253;60457;-68
2024/01/16 09:42:32;;;;;;;15.40;10.70;;;;;;;2.87;59.82;98503.77;105711;1255;67070;-68
2024/01/16 09:45:02;;;;;;;15.20;10.80;;;;;;;2.93;59.53;98505.91;105647;1257;60585;-69
2024/01/16 09:47:34;;;;;;;14.50;11.00;;;;;;;2.98;59.02;98513.54;105690;1257;65531;-69
2024/01/16 09:50:02;;;;;;;15.10;10.60;;;;;;;3.01;58.43;98510.16;105378;1253;60519;-69
2024/01/16 09:52:29;;;;;;;13.50;10.50;;;;;;;3.00;58.25;98508.66;105833;1254;60431;-68
2024/01/16 09:54:56;;;;;;;15.70;10.40;;;;;;;3.05;58.40;98510.36;105757;1253;66993;-68
2024/01/16 09:57:26;;;;;;;14.90;10.60;;;;;;;3.18;58.72;98507.98;105905;1256;60553;-69
2024/01/16 09:59:54;;;;;;;13.90;10.00;;;;;;;3.33;58.42;98506.26;105726;1257;65083;-69
2024/01/16 10:02:21;;;;;;;13.20;9.60;;;;;;;3.45;58.40;98505.80;105628;1253;60400;-69
2024/01/16 10:04:49;;;;;;;14.50;9.40;;;;;;;3.56;58.03;98506.69;105604;1258;60465;-69
2024/01/16 10:07:16;;;;;;;11.60;7.50;;;;;;;3.65;57.11;98509.59;105779;1255;67303;-69
2024/01/16 10:09:43;;;;;;;10.30;7.50;;;;;;;3.68;55.99;98505.02;105732;1254;60545;-69
2024/01/16 10:12:10;;;;;;;10.50;7.40;;;;;;;3.69;55.57;98507.50;105814;1253;65999;-69
2024/01/16 10:14:38;;;;;;;10.30;6.90;;;;;;;3.68;54.69;98501.69;105671;1258;60356;-69
2024/01/16 10:17:05;;;;;;;8.80;6.30;;;;;;;3.67;54.44;98510.27;105569;1253;60435;-69
2024/01/16 10:19:32;;;;;;;11.90;7.40;;;;;;;3.68;53.54;98512.84;105834;1256;66854;-69
2024/01/16 10:22:12;;;;;;;10.10;6.10;;;;;;;3.63;52.52;98514.61;105599;1253;60460;-68
2024/01/16 10:24:40;;;;;;;7.50;5.70;;;;;;;3.56;52.54;98516.92;105732;1256;64071;-69
2024/01/16 10:27:07;;;;;;;9.80;5.90;;;;;;;3.57;52.17;98520.17;105563;1253;60321;-69
2024/01/16 10:29:35;;;;;;;9.10;5.60;;;;;;;3.63;52.27;98524.35;105855;1253;60477;-69
2024/01/16 10:32:28;;;;;;;10.00;5.70;;;;;;;3.63;51.46;98530.29;105784;1257;65224;-69
2024/01/16 10:35:22;;;;;;;8.70;5.60;;;;;;;3.60;51.43;98528.79;105714;1253;60530;-69
2024/01/16 10:37:53;;;;;;;8.60;5.10;;;;;;;3.65;51.12;98538.30;105790;1256;63876;-69
2024/01/16 10:40:21;;;;;;;9.90;5.70;;;;;;;3.66;50.98;98540.44;105486;1259;60345;-69
2024/01/16 10:43:00;;;;;;;8.10;5.20;;;;;;;3.64;50.60;98549.31;105645;1253;61758;-69
2024/01/16 10:45:28;;;;;;;9.00;5.30;;;;;;;3.62;50.22;98544.64;105674;1254;65829;-69
2024/01/16 10:48:06;;;;;;;8.70;5.70;;;;;;;3.56;50.28;98544.40;105923;1256;60455;-68
2024/01/16 10:50:35;;;;;;;8.00;5.80;;;;;;;3.55;50.37;98546.09;105559;1258;63098;-69
2024/01/16 10:53:06;;;;;;;8.40;5.50;;;;;;;3.51;50.24;98544.48;105702;1258;60381;-69
2024/01/16 10:55:50;;;;;;;9.50;5.80;;;;;;;3.50;50.11;98552.21;105673;1254;61154;-67
2024/01/16 10:58:22;;;;;;;9.10;5.90;;;;;;;3.48;49.85;98557.45;105708;1254;63967;-68
2024/01/16 11:00:52;;;;;;;9.20;6.00;;;;;;;3.49;49.97;98555.77;105697;1260;60493;-68
2024/01/16 11:03:30;;;;;;;8.30;5.60;;;;;;;3.56;49.96;98556.27;105532;1256;65546;-70
2024/01/16 11:05:57;;;;;;;8.50;5.70;;;;;;;3.62;49.66;98550.18;105892;1254;60802;-68
2024/01/16 11:08:29;;;;;;;8.30;5.50;;;;;;;3.69;49.32;98552.89;105684;1254;60470;-68
2024/01/16 11:10:58;;;;;;;11.00;6.20;;;;;;;3.72;49.10;98552.52;105837;1258;66862;-69
2024/01/16 11:13:24;;;;;;;8.60;5.70;;;;;;;3.70;49.04;98557.38;105609;1259;60547;-69
2024/01/16 11:15:51;;;;;;;9.00;5.70;;;;;;;3.65;48.71;98558.45;105469;1259;72751;-69
2024/01/16 11:18:18;;;;;;;8.60;5.40;;;;;;;3.58;48.40;98559.04;105703;1256;60896;-68
2024/01/16 11:20:46;;;;;;;8.50;5.60;;;;;;;3.54;48.46;98561.50;105371;1254;60447;-68
2024/01/16 11:23:32;;;;;;;8.30;5.20;;;;;;;3.57;48.41;98567.28;105587;1253;65191;-68